Time;durP1;ratioP1;P1;durP2;ratioP2;P2;SDS_P1;SDS_P2;PMS_P1;PMS_P2;Temp;Humidity;BMP_temperature;BMP_pressure;BME280_temperature;BME280_humidity;BME280_pressure;Samples;Min_cycle;Max_cycle;Signal;HPM_P1;HPM_P2
2023/12/01 00:01:49;;;;;;;21.52;10.57;;;8.00;99.90;;;;;;4971705;28;20091;-77
2023/12/01 00:04:14;;;;;;;20.67;10.43;;;8.00;99.90;;;;;;4973190;28;20443;-78
2023/12/01 00:06:40;;;;;;;23.67;10.70;;;8.10;99.90;;;;;;4972045;28;20105;-77
2023/12/01 00:09:05;;;;;;;19.40;10.15;;;8.10;99.90;;;;;;4972301;28;20023;-77
2023/12/01 00:11:31;;;;;;;23.73;9.45;;;8.10;99.90;;;;;;4971563;28;20031;-77
2023/12/01 00:13:56;;;;;;;21.52;10.48;;;8.00;99.90;;;;;;4971908;28;20027;-78
2023/12/01 00:16:22;;;;;;;17.42;9.82;;;8.00;99.90;;;;;;4972777;28;20027;-77
2023/12/01 00:18:47;;;;;;;20.70;9.95;;;8.00;99.90;;;;;;4973431;28;20031;-78
2023/12/01 00:21:13;;;;;;;20.92;10.32;;;8.00;99.90;;;;;;4971961;28;20015;-79
2023/12/01 00:23:38;;;;;;;17.98;9.52;;;8.10;99.90;;;;;;4968560;28;20029;-77
2023/12/01 00:26:04;;;;;;;17.80;9.20;;;8.10;99.90;;;;;;4974942;28;20059;-77
2023/12/01 00:28:30;;;;;;;19.52;9.68;;;8.00;99.90;;;;;;4971374;28;20053;-77
2023/12/01 00:30:55;;;;;;;16.25;9.48;;;8.10;99.90;;;;;;4969588;28;20027;-77
2023/12/01 00:33:21;;;;;;;17.80;9.93;;;8.10;99.90;;;;;;4972543;28;20011;-77
2023/12/01 00:35:47;;;;;;;20.60;10.15;;;8.10;99.90;;;;;;4985984;28;20100;-75
2023/12/01 00:38:12;;;;;;;22.90;10.00;;;8.00;99.90;;;;;;4970277;28;20488;-77
2023/12/01 00:40:38;;;;;;;20.85;9.95;;;8.00;99.90;;;;;;4972858;28;20037;-77
2023/12/01 00:43:03;;;;;;;22.67;10.60;;;8.00;99.90;;;;;;4966146;28;20687;-78
2023/12/01 00:45:29;;;;;;;20.92;10.15;;;8.00;99.90;;;;;;4972136;28;20073;-77
2023/12/01 00:47:54;;;;;;;22.92;9.70;;;8.00;99.90;;;;;;4967667;28;20027;-78
2023/12/01 00:50:20;;;;;;;20.48;9.80;;;8.10;99.90;;;;;;4969362;28;20385;-78
2023/12/01 00:52:45;;;;;;;22.73;10.70;;;8.10;99.90;;;;;;4972293;28;20031;-77
2023/12/01 00:55:11;;;;;;;18.77;9.95;;;8.00;99.90;;;;;;4973134;28;20034;-77
2023/12/01 00:57:36;;;;;;;18.67;9.15;;;8.00;99.90;;;;;;4972679;28;20037;-77
2023/12/01 01:00:03;;;;;;;18.17;8.70;;;8.00;99.90;;;;;;4971525;28;20496;-77
2023/12/01 01:02:31;;;;;;;21.02;10.20;;;8.10;99.90;;;;;;4968079;28;20054;-77
2023/12/01 01:04:56;;;;;;;17.80;9.55;;;8.10;99.90;;;;;;4972253;28;20069;-78
2023/12/01 01:07:22;;;;;;;19.13;9.20;;;8.10;99.90;;;;;;4972337;28;20027;-78
2023/12/01 01:09:47;;;;;;;19.23;9.23;;;8.10;99.90;;;;;;4968210;28;20035;-77
2023/12/01 01:12:13;;;;;;;15.13;8.40;;;8.00;99.90;;;;;;4968764;28;20027;-78
2023/12/01 01:14:39;;;;;;;20.38;9.50;;;8.00;99.90;;;;;;4970475;28;20027;-77
2023/12/01 01:17:05;;;;;;;15.88;8.75;;;8.10;99.90;;;;;;4971671;28;20048;-78
2023/12/01 01:19:31;;;;;;;17.17;9.27;;;8.00;99.90;;;;;;4969876;28;20377;-77
2023/12/01 01:21:56;;;;;;;16.15;9.50;;;8.00;99.90;;;;;;4972116;28;20026;-79
2023/12/01 01:24:22;;;;;;;17.10;9.20;;;8.00;99.90;;;;;;4964942;28;20512;-78
2023/12/01 01:26:47;;;;;;;17.45;8.98;;;8.10;99.90;;;;;;4970611;28;20019;-78
2023/12/01 01:29:13;;;;;;;14.95;9.00;;;8.00;99.90;;;;;;4973323;28;20023;-78
2023/12/01 01:31:38;;;;;;;17.73;8.70;;;8.00;99.90;;;;;;4971104;28;20043;-79
2023/12/01 01:34:04;;;;;;;14.60;8.02;;;8.10;99.90;;;;;;4968825;28;20030;-77
2023/12/01 01:36:29;;;;;;;17.65;9.07;;;8.10;99.90;;;;;;4968624;28;20428;-77
2023/12/01 01:38:55;;;;;;;17.33;8.95;;;8.10;99.90;;;;;;4968302;28;20091;-78
2023/12/01 01:41:21;;;;;;;14.93;8.05;;;8.00;99.90;;;;;;4971148;28;20030;-77
2023/12/01 01:43:46;;;;;;;15.90;8.63;;;8.10;99.90;;;;;;4971677;28;20031;-77
2023/12/01 01:46:14;;;;;;;16.50;8.27;;;8.00;99.90;;;;;;4971196;28;20432;-77
2023/12/01 01:48:42;;;;;;;13.95;8.05;;;8.10;99.90;;;;;;4969581;28;20058;-79
2023/12/01 01:51:09;;;;;;;17.33;8.68;;;8.10;99.90;;;;;;4969763;28;20022;-78
2023/12/01 01:53:37;;;;;;;12.68;8.60;;;8.00;99.90;;;;;;4970531;28;20498;-77
2023/12/01 01:56:02;;;;;;;15.02;8.27;;;8.00;99.90;;;;;;4970910;28;20436;-77
2023/12/01 01:58:28;;;;;;;12.82;7.90;;;8.00;99.90;;;;;;4970387;28;20014;-78
2023/12/01 02:00:53;;;;;;;15.77;8.75;;;8.00;99.90;;;;;;4966481;28;20038;-78
2023/12/01 02:03:21;;;;;;;14.38;8.75;;;8.00;99.90;;;;;;4967301;28;20019;-78
2023/12/01 02:05:49;;;;;;;17.38;8.45;;;8.00;99.90;;;;;;4970614;28;20105;-77
2023/12/01 02:08:26;;;;;;;16.58;8.25;;;8.00;99.90;;;;;;4971337;28;20030;-78
2023/12/01 02:10:56;;;;;;;14.98;7.97;;;8.00;99.90;;;;;;4970804;28;20409;-78
2023/12/01 02:13:24;;;;;;;14.57;8.60;;;8.00;99.90;;;;;;4967281;28;20580;-76
2023/12/01 02:15:50;;;;;;;15.73;8.07;;;8.00;99.90;;;;;;4966541;28;20030;-78
2023/12/01 02:18:26;;;;;;;12.57;7.70;;;8.00;99.90;;;;;;4969146;28;20484;-78
2023/12/01 02:20:53;;;;;;;14.15;7.97;;;8.00;99.90;;;;;;4970931;28;20023;-77
2023/12/01 02:23:19;;;;;;;13.55;8.45;;;8.00;99.90;;;;;;4970434;28;20019;-78
2023/12/01 02:25:45;;;;;;;15.27;8.35;;;8.00;99.90;;;;;;4967186;28;20026;-77
2023/12/01 02:28:11;;;;;;;12.95;7.82;;;8.00;99.90;;;;;;4968010;28;20507;-77
2023/12/01 02:30:37;;;;;;;15.70;8.20;;;8.10;99.90;;;;;;4967051;28;20062;-78
2023/12/01 02:33:02;;;;;;;14.38;7.95;;;8.00;99.90;;;;;;4970661;28;20061;-77
2023/12/01 02:35:31;;;;;;;14.85;8.23;;;8.10;99.90;;;;;;4970854;28;20026;-77
2023/12/01 02:37:57;;;;;;;15.38;8.27;;;8.00;99.90;;;;;;4965155;28;20062;-79
2023/12/01 02:40:23;;;;;;;14.43;8.32;;;8.00;99.90;;;;;;4966710;28;20019;-78
2023/12/01 02:42:49;;;;;;;19.70;8.90;;;8.00;99.90;;;;;;4966886;28;20034;-78
2023/12/01 02:45:16;;;;;;;15.70;8.73;;;8.10;99.90;;;;;;4970560;28;20429;-78
2023/12/01 02:47:45;;;;;;;15.60;8.60;;;8.10;99.90;;;;;;4970668;28;20056;-77
2023/12/01 02:50:12;;;;;;;14.60;8.02;;;8.00;99.90;;;;;;4964641;28;20027;-77
2023/12/01 02:52:38;;;;;;;15.43;8.88;;;8.00;99.90;;;;;;4967457;28;20456;-78
2023/12/01 02:55:04;;;;;;;15.35;8.77;;;8.00;99.90;;;;;;4969655;28;20049;-77
2023/12/01 02:57:29;;;;;;;15.13;9.15;;;8.00;99.90;;;;;;4969315;28;20027;-78
2023/12/01 02:59:55;;;;;;;15.23;8.82;;;8.00;99.90;;;;;;4970671;28;20480;-78
2023/12/01 03:02:21;;;;;;;13.45;7.90;;;8.00;99.90;;;;;;4969592;28;20027;-77
2023/12/01 03:04:47;;;;;;;15.02;8.25;;;8.00;99.90;;;;;;4966719;28;20023;-77
2023/12/01 03:07:13;;;;;;;15.77;7.95;;;8.00;99.90;;;;;;4968936;28;20507;-78
2023/12/01 03:09:38;;;;;;;13.18;8.35;;;8.00;99.90;;;;;;4969983;28;20684;-77
2023/12/01 03:12:04;;;;;;;13.85;8.23;;;8.00;99.90;;;;;;4970445;28;20034;-78
2023/12/01 03:14:31;;;;;;;15.65;8.50;;;8.00;99.90;;;;;;4968052;28;20042;-79
2023/12/01 03:16:56;;;;;;;18.23;8.43;;;8.00;99.90;;;;;;4960027;28;20522;-77
2023/12/01 03:19:22;;;;;;;15.82;8.35;;;8.00;99.90;;;;;;4969024;28;20062;-77
2023/12/01 03:21:48;;;;;;;13.98;8.65;;;8.00;99.90;;;;;;4970496;28;20057;-77
2023/12/01 03:24:14;;;;;;;13.43;8.18;;;8.00;99.90;;;;;;4969887;28;20023;-77
2023/12/01 03:26:39;;;;;;;16.15;8.80;;;8.00;99.90;;;;;;4967740;28;20184;-77
2023/12/01 03:29:05;;;;;;;14.48;7.95;;;8.00;99.90;;;;;;4965202;28;20031;-76
2023/12/01 03:31:30;;;;;;;15.02;8.05;;;8.00;99.90;;;;;;4966567;28;20072;-77
2023/12/01 03:33:56;;;;;;;15.38;7.93;;;8.00;99.90;;;;;;4969378;28;20029;-77
2023/12/01 03:36:21;;;;;;;14.38;7.70;;;8.00;99.90;;;;;;4971069;28;20027;-78
2023/12/01 03:38:47;;;;;;;11.95;7.82;;;8.00;99.90;;;;;;4970013;28;20516;-77
2023/12/01 03:41:13;;;;;;;11.80;7.30;;;8.00;99.90;;;;;;4968606;28;20027;-77
2023/12/01 03:43:39;;;;;;;16.33;7.70;;;8.00;99.90;;;;;;4971392;28;20023;-77
2023/12/01 03:46:05;;;;;;;12.52;7.25;;;8.00;99.90;;;;;;4972521;28;20444;-77
2023/12/01 03:48:33;;;;;;;15.50;7.15;;;8.00;99.90;;;;;;4973676;28;20037;-77
2023/12/01 03:50:59;;;;;;;13.77;7.80;;;8.10;99.90;;;;;;4972258;28;20011;-77
2023/12/01 03:53:25;;;;;;;12.70;7.30;;;8.10;99.90;;;;;;4969228;28;20555;-77
2023/12/01 03:55:50;;;;;;;15.88;7.80;;;8.00;99.90;;;;;;4970723;28;20034;-77
2023/12/01 03:58:17;;;;;;;13.13;8.02;;;8.00;99.90;;;;;;4975202;28;20388;-77
2023/12/01 04:00:42;;;;;;;10.57;6.50;;;8.00;99.90;;;;;;4970542;28;20041;-77
2023/12/01 04:03:08;;;;;;;12.40;6.88;;;8.00;99.90;;;;;;4970554;28;20097;-77
2023/12/01 04:05:34;;;;;;;14.73;7.43;;;8.00;99.90;;;;;;4969543;28;20485;-77
2023/12/01 04:07:59;;;;;;;11.35;6.65;;;8.00;99.90;;;;;;4970065;28;20369;-77
2023/12/01 04:10:25;;;;;;;14.38;6.72;;;8.00;99.90;;;;;;4972418;28;20034;-77
2023/12/01 04:12:51;;;;;;;8.73;6.25;;;8.00;99.90;;;;;;4972900;28;20468;-77
2023/12/01 04:15:17;;;;;;;12.10;6.90;;;8.00;99.90;;;;;;4971795;28;20058;-78
2023/12/01 04:17:44;;;;;;;11.27;7.28;;;8.00;99.90;;;;;;4983847;28;20031;-77
2023/12/01 04:20:21;;;;;;;11.40;6.30;;;8.00;99.90;;;;;;4969075;28;20043;-77
2023/12/01 04:23:00;;;;;;;11.20;6.78;;;8.00;99.90;;;;;;4971943;28;20023;-77
2023/12/01 04:25:27;;;;;;;10.13;6.80;;;8.00;99.90;;;;;;4970211;28;20029;-77
2023/12/01 04:27:53;;;;;;;9.98;6.53;;;8.00;99.90;;;;;;4972402;28;20019;-79
2023/12/01 04:30:20;;;;;;;10.23;6.25;;;8.00;99.90;;;;;;4966911;28;20038;-76
2023/12/01 04:32:53;;;;;;;10.65;5.57;;;8.00;99.90;;;;;;4970042;28;20035;-77
2023/12/01 04:35:23;;;;;;;11.40;6.55;;;8.00;99.90;;;;;;4972179;28;20388;-77
2023/12/01 04:37:48;;;;;;;11.15;6.80;;;8.00;99.90;;;;;;4968699;28;20089;-78
2023/12/01 04:40:17;;;;;;;10.73;6.10;;;8.00;99.90;;;;;;4969043;28;20548;-77
2023/12/01 04:42:52;;;;;;;8.02;5.95;;;8.00;99.90;;;;;;4968518;28;20485;-77
2023/12/01 04:45:19;;;;;;;9.75;6.43;;;8.00;99.90;;;;;;4968531;28;20123;-77
2023/12/01 04:47:50;;;;;;;9.73;5.63;;;8.00;99.90;;;;;;4970302;28;20042;-77
2023/12/01 04:50:18;;;;;;;9.40;6.10;;;8.00;99.90;;;;;;4965407;28;20046;-78
2023/12/01 04:52:45;;;;;;;9.30;5.80;;;8.00;99.90;;;;;;4969522;28;20093;-78
2023/12/01 04:55:13;;;;;;;10.93;6.82;;;8.00;99.90;;;;;;4964764;28;20078;-77
2023/12/01 04:57:39;;;;;;;11.68;6.35;;;8.00;99.90;;;;;;4969896;28;20043;-77
2023/12/01 05:00:18;;;;;;;8.98;5.90;;;8.00;99.90;;;;;;4970317;28;20440;-77
2023/12/01 05:03:07;;;;;;;8.60;5.88;;;8.00;99.90;;;;;;4972391;28;20023;-77
2023/12/01 05:05:37;;;;;;;9.43;5.95;;;8.00;99.90;;;;;;4969895;28;20031;-77
2023/12/01 05:08:07;;;;;;;9.65;6.20;;;8.00;99.90;;;;;;4964632;28;20122;-78
2023/12/01 05:10:34;;;;;;;11.65;6.82;;;8.00;99.90;;;;;;4966435;28;20031;-77
2023/12/01 05:13:04;;;;;;;9.80;5.95;;;8.00;99.90;;;;;;4969896;28;20101;-78
2023/12/01 05:15:32;;;;;;;12.38;6.63;;;8.00;99.90;;;;;;4971493;28;20037;-78
2023/12/01 05:18:06;;;;;;;10.98;6.47;;;8.00;99.90;;;;;;4968166;28;20122;-77
2023/12/01 05:20:32;;;;;;;11.68;6.65;;;8.00;99.90;;;;;;4967954;28;20019;-77
2023/12/01 05:23:00;;;;;;;11.43;6.82;;;8.00;99.90;;;;;;4966666;28;20025;-77
2023/12/01 05:25:27;;;;;;;9.13;6.53;;;8.00;99.90;;;;;;4967502;28;20030;-77
2023/12/01 05:27:56;;;;;;;10.02;6.30;;;8.00;99.90;;;;;;4972145;28;20069;-78
2023/12/01 05:30:26;;;;;;;11.18;6.63;;;8.00;99.90;;;;;;4971499;28;20125;-77
2023/12/01 05:32:53;;;;;;;11.25;6.60;;;8.00;99.90;;;;;;4967691;28;20033;-77
2023/12/01 05:35:19;;;;;;;8.45;6.03;;;8.00;99.90;;;;;;4969379;28;20401;-77
2023/12/01 05:37:50;;;;;;;11.18;6.55;;;8.00;99.90;;;;;;4968866;28;20041;-78
2023/12/01 05:40:26;;;;;;;12.15;6.07;;;8.00;99.90;;;;;;4960624;28;20114;-77
2023/12/01 05:42:53;;;;;;;10.18;6.20;;;8.00;99.90;;;;;;4969054;28;20105;-77
2023/12/01 05:45:23;;;;;;;11.68;6.78;;;8.00;99.90;;;;;;4964964;28;20528;-78
2023/12/01 05:47:52;;;;;;;10.65;6.55;;;8.00;99.90;;;;;;4967456;28;20639;-77
2023/12/01 05:50:24;;;;;;;14.30;6.57;;;8.00;99.90;;;;;;4968322;28;20480;-78
2023/12/01 05:52:51;;;;;;;8.85;5.85;;;8.00;99.90;;;;;;4968384;28;20030;-77
2023/12/01 05:55:20;;;;;;;11.60;7.20;;;8.00;99.90;;;;;;4965493;28;20027;-78
2023/12/01 05:57:50;;;;;;;12.07;5.88;;;8.00;99.90;;;;;;4967527;28;20622;-78
2023/12/01 06:00:20;;;;;;;11.50;6.45;;;8.00;99.90;;;;;;4964149;28;20054;-77
2023/12/01 06:02:46;;;;;;;10.00;5.97;;;8.00;99.90;;;;;;4968838;28;20073;-77
2023/12/01 06:05:14;;;;;;;11.35;6.40;;;8.00;99.90;;;;;;4970655;28;20018;-77
2023/12/01 06:07:44;;;;;;;10.13;6.57;;;8.00;99.90;;;;;;4964423;28;20022;-77
2023/12/01 06:10:13;;;;;;;10.60;6.22;;;8.00;99.90;;;;;;4966418;28;20050;-78
2023/12/01 06:12:39;;;;;;;10.13;6.38;;;8.00;99.90;;;;;;4968270;28;20105;-77
2023/12/01 06:15:10;;;;;;;11.20;6.57;;;8.00;99.90;;;;;;4969309;28;20049;-74
2023/12/01 06:17:43;;;;;;;10.43;6.00;;;8.00;99.90;;;;;;4971071;28;20030;-78
2023/12/01 06:20:19;;;;;;;9.75;5.90;;;8.00;99.90;;;;;;4962977;28;20069;-76
2023/12/01 06:22:45;;;;;;;10.85;5.93;;;8.00;99.90;;;;;;4970915;28;20058;-77
2023/12/01 06:25:10;;;;;;;10.93;5.95;;;8.00;99.90;;;;;;4966220;28;20019;-78
2023/12/01 06:27:36;;;;;;;10.88;6.18;;;8.00;99.90;;;;;;4969969;28;20038;-78
2023/12/01 06:30:03;;;;;;;12.95;6.97;;;8.00;99.90;;;;;;4970403;28;20606;-77
2023/12/01 06:32:28;;;;;;;8.45;5.80;;;8.00;99.90;;;;;;4963755;28;20023;-78
2023/12/01 06:34:54;;;;;;;12.52;6.57;;;8.00;99.90;;;;;;4966119;28;20400;-77
2023/12/01 06:37:20;;;;;;;12.02;7.03;;;8.00;99.90;;;;;;4965961;28;20485;-77
2023/12/01 06:39:45;;;;;;;11.15;5.97;;;8.00;99.90;;;;;;4967545;28;20037;-78
2023/12/01 06:42:11;;;;;;;10.65;6.63;;;8.00;99.90;;;;;;4970512;28;20019;-78
2023/12/01 06:44:36;;;;;;;13.18;6.90;;;8.00;99.90;;;;;;4967579;28;20030;-78
2023/12/01 06:47:02;;;;;;;10.65;6.82;;;8.00;99.90;;;;;;4965381;28;20026;-78
2023/12/01 06:49:28;;;;;;;11.02;6.72;;;8.00;99.90;;;;;;4966318;28;20027;-77
2023/12/01 06:51:53;;;;;;;12.15;7.15;;;8.00;99.90;;;;;;4969011;28;20099;-77
2023/12/01 06:54:19;;;;;;;11.30;7.53;;;8.00;99.90;;;;;;4964402;28;20106;-79
2023/12/01 06:56:44;;;;;;;14.90;7.75;;;8.00;99.90;;;;;;4969745;28;20027;-78
2023/12/01 06:59:10;;;;;;;12.45;7.28;;;8.00;99.90;;;;;;4965444;28;20027;-79
2023/12/01 07:01:35;;;;;;;14.27;7.20;;;7.90;99.90;;;;;;4969717;28;20027;-78
2023/12/01 07:04:07;;;;;;;13.90;8.35;;;8.00;99.90;;;;;;4966020;28;20551;-78
2023/12/01 07:06:35;;;;;;;12.57;6.90;;;7.90;99.90;;;;;;4970139;28;20053;-78
2023/12/01 07:09:01;;;;;;;11.98;6.88;;;7.90;99.90;;;;;;4967961;28;20037;-78
2023/12/01 07:11:26;;;;;;;13.98;7.40;;;8.00;99.90;;;;;;4971676;28;20046;-78
2023/12/01 07:13:52;;;;;;;10.23;6.57;;;8.00;99.90;;;;;;4974792;28;20039;-78
2023/12/01 07:16:19;;;;;;;13.63;7.63;;;8.00;99.90;;;;;;4972345;28;20069;-78
2023/12/01 07:18:44;;;;;;;11.20;6.95;;;8.00;99.90;;;;;;4973912;28;20102;-78
2023/12/01 07:21:10;;;;;;;12.10;6.95;;;8.00;99.90;;;;;;4970998;28;20111;-78
2023/12/01 07:23:41;;;;;;;11.50;7.43;;;8.00;99.90;;;;;;4968508;28;20030;-78
2023/12/01 07:26:07;;;;;;;12.35;7.55;;;8.00;99.90;;;;;;4968011;28;20076;-77
2023/12/01 07:28:32;;;;;;;15.10;7.00;;;8.00;99.90;;;;;;4971860;28;20039;-78
2023/12/01 07:30:59;;;;;;;14.68;7.00;;;8.00;99.90;;;;;;4968701;28;20043;-79
2023/12/01 07:33:25;;;;;;;11.40;7.03;;;8.00;99.90;;;;;;4969388;28;20353;-78
2023/12/01 07:35:51;;;;;;;11.95;6.15;;;8.00;99.90;;;;;;4970989;28;20094;-78
2023/12/01 07:38:17;;;;;;;12.73;6.80;;;8.00;99.90;;;;;;4966189;28;20381;-79
2023/12/01 07:40:44;;;;;;;12.48;6.40;;;8.00;99.90;;;;;;4970049;28;20026;-79
2023/12/01 07:43:09;;;;;;;10.63;6.78;;;8.00;99.90;;;;;;4963322;28;20029;-78
2023/12/01 07:45:35;;;;;;;14.90;7.28;;;8.00;99.90;;;;;;4967028;28;20019;-79
2023/12/01 07:48:01;;;;;;;9.45;5.90;;;8.00;99.90;;;;;;4970205;28;20114;-78
2023/12/01 07:50:26;;;;;;;14.18;7.20;;;8.00;99.90;;;;;;4968575;28;20038;-78
2023/12/01 07:52:52;;;;;;;14.55;6.93;;;8.00;99.90;;;;;;4970497;28;20031;-77
2023/12/01 07:55:19;;;;;;;13.00;7.20;;;8.00;99.90;;;;;;4969271;28;20027;-78
2023/12/01 07:57:46;;;;;;;13.55;6.57;;;8.00;99.90;;;;;;4965278;28;20566;-78
2023/12/01 08:00:15;;;;;;;13.32;7.10;;;8.00;99.90;;;;;;4982843;28;20038;-78
2023/12/01 08:02:45;;;;;;;12.65;7.03;;;8.00;99.90;;;;;;4964597;28;20110;-78
2023/12/01 08:05:13;;;;;;;12.85;7.00;;;8.00;99.90;;;;;;4966056;28;20727;-79
2023/12/01 08:07:44;;;;;;;15.27;7.95;;;8.00;99.90;;;;;;4968015;28;20057;-77
2023/12/01 08:10:14;;;;;;;17.65;7.55;;;8.00;99.90;;;;;;4968144;28;20492;-79
2023/12/01 08:12:41;;;;;;;13.30;8.48;;;8.00;99.90;;;;;;4966917;28;20504;-78
2023/12/01 08:15:07;;;;;;;18.92;8.88;;;8.00;99.90;;;;;;4965703;28;20085;-78
2023/12/01 08:17:32;;;;;;;15.07;8.02;;;8.00;99.90;;;;;;4972079;28;20038;-78
2023/12/01 08:19:58;;;;;;;15.77;7.72;;;7.90;99.90;;;;;;4970786;28;20019;-78
2023/12/01 08:22:23;;;;;;;17.63;8.57;;;8.00;99.90;;;;;;4973964;28;20495;-77
2023/12/01 08:24:50;;;;;;;17.00;7.97;;;7.90;99.90;;;;;;4970220;28;20042;-79
2023/12/01 08:27:16;;;;;;;16.00;8.45;;;7.90;99.90;;;;;;4968901;28;20082;-79
2023/12/01 08:29:42;;;;;;;19.00;8.18;;;8.00;99.90;;;;;;4968205;28;20047;-78
2023/12/01 08:32:08;;;;;;;20.92;9.02;;;8.00;99.90;;;;;;4968439;28;20109;-78
2023/12/01 08:34:33;;;;;;;13.90;7.93;;;7.90;99.90;;;;;;4969780;28;20110;-78
2023/12/01 08:36:59;;;;;;;18.23;8.50;;;8.00;99.90;;;;;;4970690;28;20042;-78
2023/12/01 08:39:24;;;;;;;18.45;8.25;;;7.90;99.90;;;;;;4969665;28;20026;-78
2023/12/01 08:41:53;;;;;;;15.85;7.75;;;8.00;99.90;;;;;;4969861;28;20035;-78
2023/12/01 08:44:19;;;;;;;16.15;7.53;;;8.00;99.90;;;;;;4971534;28;20023;-78
2023/12/01 08:46:44;;;;;;;14.13;8.18;;;8.00;99.90;;;;;;4970076;28;20035;-78
2023/12/01 08:49:10;;;;;;;13.77;8.10;;;8.00;99.90;;;;;;4968804;28;20081;-79
2023/12/01 08:51:35;;;;;;;12.82;7.43;;;8.00;99.90;;;;;;4974530;28;20038;-78
2023/12/01 08:54:01;;;;;;;14.52;7.43;;;7.90;99.90;;;;;;4971527;28;20066;-78
2023/12/01 08:56:31;;;;;;;15.13;7.55;;;7.90;99.90;;;;;;4969459;28;20122;-78
2023/12/01 08:58:57;;;;;;;16.42;7.30;;;7.90;99.90;;;;;;4970353;28;20365;-78
2023/12/01 09:01:22;;;;;;;16.25;7.15;;;7.90;99.90;;;;;;4969867;28;20034;-77
2023/12/01 09:03:48;;;;;;;12.27;6.13;;;8.00;99.90;;;;;;4970448;28;20031;-79
2023/12/01 09:06:13;;;;;;;16.05;6.57;;;8.00;99.90;;;;;;4969780;28;20023;-78
2023/12/01 09:08:38;;;;;;;15.90;6.75;;;8.00;99.90;;;;;;4971433;28;20023;-78
2023/12/01 09:11:04;;;;;;;16.30;7.68;;;7.90;99.90;;;;;;4970386;28;20019;-78
2023/12/01 09:13:32;;;;;;;12.43;7.20;;;8.00;99.90;;;;;;4973933;28;20057;-78
2023/12/01 09:15:58;;;;;;;14.00;6.53;;;8.00;99.90;;;;;;4968754;28;20046;-77
2023/12/01 09:18:24;;;;;;;10.80;7.00;;;8.00;99.90;;;;;;4968250;28;20037;-78
2023/12/01 09:20:50;;;;;;;13.68;6.63;;;8.00;99.90;;;;;;4969971;28;20022;-77
2023/12/01 09:23:15;;;;;;;12.30;6.35;;;8.00;99.90;;;;;;4967200;28;20049;-77
2023/12/01 09:25:41;;;;;;;12.00;6.07;;;8.00;99.90;;;;;;4973876;28;20548;-77
2023/12/01 09:28:06;;;;;;;12.07;5.75;;;8.00;99.90;;;;;;4968176;28;20396;-78
2023/12/01 09:30:32;;;;;;;10.93;6.22;;;8.00;99.90;;;;;;4972568;28;20496;-77
2023/12/01 09:32:58;;;;;;;9.20;5.75;;;8.00;99.90;;;;;;4969296;28;20031;-77
2023/12/01 09:35:25;;;;;;;12.23;5.18;;;8.00;99.90;;;;;;4970072;28;20038;-77
2023/12/01 09:37:51;;;;;;;8.57;6.05;;;8.00;99.90;;;;;;4970338;28;20081;-77
2023/12/01 09:40:18;;;;;;;9.82;6.20;;;8.00;99.90;;;;;;4970360;28;20031;-77
2023/12/01 09:42:43;;;;;;;9.32;5.82;;;8.00;99.90;;;;;;4972515;28;20107;-77
2023/12/01 09:45:09;;;;;;;8.75;5.90;;;8.00;99.90;;;;;;4970467;28;20725;-76
2023/12/01 09:47:42;;;;;;;7.82;5.82;;;8.00;99.90;;;;;;4984480;28;20035;-77
2023/12/01 09:50:13;;;;;;;8.23;4.82;;;8.00;99.90;;;;;;4967089;28;20035;-76
2023/12/01 09:52:40;;;;;;;10.18;5.35;;;8.00;99.90;;;;;;4970162;28;20091;-76
2023/12/01 09:55:06;;;;;;;9.63;5.13;;;8.00;99.90;;;;;;4970285;28;20015;-76
2023/12/01 09:57:32;;;;;;;8.98;5.22;;;8.00;99.90;;;;;;4970572;28;20433;-77
2023/12/01 09:59:58;;;;;;;8.15;5.20;;;8.00;99.90;;;;;;4970117;28;20033;-77
2023/12/01 10:02:23;;;;;;;8.15;5.13;;;8.00;99.90;;;;;;4970000;28;20038;-75
2023/12/01 10:05:00;;;;;;;9.13;5.85;;;8.00;99.90;;;;;;4967418;28;20118;-77
2023/12/01 10:07:26;;;;;;;8.13;4.80;;;8.00;99.90;;;;;;4971415;28;20098;-76
2023/12/01 10:09:51;;;;;;;7.70;5.32;;;8.00;99.90;;;;;;4968876;28;20165;-77
2023/12/01 10:12:17;;;;;;;7.40;4.88;;;8.00;99.90;;;;;;4969488;28;20031;-76
2023/12/01 10:14:43;;;;;;;7.45;5.00;;;8.00;99.90;;;;;;4969521;28;20027;-77
2023/12/01 10:17:12;;;;;;;7.35;5.40;;;8.00;99.90;;;;;;4969817;28;20034;-76
2023/12/01 10:19:48;;;;;;;8.90;5.22;;;8.00;99.90;;;;;;4967449;28;20030;-76
2023/12/01 10:22:17;;;;;;;10.77;5.68;;;8.00;99.90;;;;;;4969027;28;20396;-76
2023/12/01 10:24:55;;;;;;;9.05;5.20;;;8.00;99.90;;;;;;4966063;28;20025;-77
2023/12/01 10:27:21;;;;;;;7.38;4.88;;;8.00;99.90;;;;;;4969578;28;20041;-77
2023/12/01 10:29:47;;;;;;;9.23;5.68;;;8.00;99.90;;;;;;4971013;28;20035;-77
2023/12/01 10:32:14;;;;;;;7.20;5.07;;;8.00;99.90;;;;;;4965544;28;20436;-77
2023/12/01 10:34:46;;;;;;;8.00;5.45;;;8.00;99.90;;;;;;4969810;28;20085;-77
2023/12/01 10:37:12;;;;;;;12.40;6.00;;;8.00;99.90;;;;;;4967903;28;20156;-77
2023/12/01 10:39:40;;;;;;;9.05;6.00;;;8.10;99.90;;;;;;4966028;28;20486;-77
2023/12/01 10:42:08;;;;;;;8.93;5.72;;;8.00;99.90;;;;;;4962470;28;20104;-77
2023/12/01 10:44:35;;;;;;;9.55;5.45;;;8.00;99.90;;;;;;4965494;28;20027;-77
2023/12/01 10:47:02;;;;;;;9.52;5.75;;;8.00;99.90;;;;;;4965549;28;20177;-77
2023/12/01 10:49:28;;;;;;;11.07;5.75;;;8.00;99.90;;;;;;4968055;28;20027;-78
2023/12/01 10:51:55;;;;;;;8.65;6.03;;;8.00;99.90;;;;;;4969493;28;20041;-77
2023/12/01 10:54:26;;;;;;;9.57;5.82;;;8.00;99.90;;;;;;4967195;28;20115;-77
2023/12/01 10:57:16;;;;;;;10.48;5.45;;;8.00;99.90;;;;;;4968035;28;20030;-77
2023/12/01 10:59:51;;;;;;;;;;;8.00;99.90;;;;;;4968784;28;20584;-77
2023/12/01 11:02:21;;;;;;;10.20;5.47;;;8.00;99.90;;;;;;4965133;28;19918;-77
2023/12/01 11:04:47;;;;;;;10.65;5.88;;;8.00;99.90;;;;;;4964148;28;20042;-77
2023/12/01 11:07:33;;;;;;;12.55;6.30;;;8.00;99.90;;;;;;4966821;28;20030;-76
2023/12/01 11:10:26;;;;;;;10.93;5.35;;;8.00;99.90;;;;;;4965725;28;20038;-77
2023/12/01 11:13:05;;;;;;;12.88;5.82;;;8.00;99.90;;;;;;4964002;28;20030;-77
2023/12/01 11:15:33;;;;;;;8.20;5.68;;;8.00;99.90;;;;;;4982094;28;20031;-77
2023/12/01 11:17:59;;;;;;;9.10;5.97;;;8.00;99.90;;;;;;4982960;28;20026;-77
2023/12/01 11:20:36;;;;;;;10.63;6.05;;;8.00;99.90;;;;;;4968758;28;20093;-77
2023/12/01 11:23:07;;;;;;;9.88;5.93;;;8.00;99.90;;;;;;4964423;28;20026;-77
2023/12/01 11:25:43;;;;;;;13.15;6.13;;;8.00;99.90;;;;;;4969744;28;20505;-78
2023/12/01 11:33:57;;;;;;;10.25;6.05;;;8.00;99.90;;;;;;4969062;28;20038;-77
2023/12/01 11:36:24;;;;;;;11.82;5.93;;;8.00;99.90;;;;;;4969621;28;20027;-77
2023/12/01 11:39:10;;;;;;;10.60;6.22;;;8.00;99.90;;;;;;4981235;28;20038;-77
2023/12/01 11:41:42;;;;;;;9.65;5.55;;;8.00;99.90;;;;;;4967553;28;20030;-77
2023/12/01 11:44:14;;;;;;;10.18;5.63;;;8.00;99.90;;;;;;4980778;28;20027;-76
2023/12/01 11:46:40;;;;;;;21.52;4.85;;;8.00;99.90;;;;;;4965593;28;20023;-78
2023/12/01 11:49:06;;;;;;;9.02;4.72;;;9.20;99.90;;;;;;4968940;28;20597;-77
2023/12/01 11:51:33;;;;;;;7.55;4.32;;;8.80;99.90;;;;;;4970786;28;20027;-77
2023/12/01 11:54:00;;;;;;;11.98;4.45;;;8.40;99.90;;;;;;4968750;28;20492;-77
2023/12/01 11:56:26;;;;;;;7.63;4.45;;;8.30;99.90;;;;;;4971065;28;20042;-77
2023/12/01 11:58:53;;;;;;;8.90;5.30;;;8.20;99.90;;;;;;4972737;28;20031;-77
2023/12/01 12:01:19;;;;;;;11.02;5.93;;;8.20;99.90;;;;;;4972257;28;20492;-77
2023/12/01 12:03:54;;;;;;;10.07;5.47;;;8.10;99.90;;;;;;4971742;28;20480;-77
2023/12/01 12:06:21;;;;;;;9.23;5.40;;;8.10;99.90;;;;;;4967566;28;20035;-76
2023/12/01 12:08:50;;;;;;;11.05;5.55;;;8.10;99.90;;;;;;4972060;28;20054;-77
2023/12/01 12:11:17;;;;;;;7.10;4.45;;;8.10;99.90;;;;;;4972570;28;20022;-78
2023/12/01 12:13:42;;;;;;;9.77;5.15;;;8.10;99.90;;;;;;4972162;28;20120;-77
2023/12/01 12:16:09;;;;;;;8.82;4.50;;;8.10;99.90;;;;;;4971808;28;20786;-77
2023/12/01 12:18:34;;;;;;;8.80;5.95;;;8.10;99.90;;;;;;4971638;28;20026;-76
2023/12/01 12:21:04;;;;;;;12.45;6.00;;;8.10;99.90;;;;;;4972434;28;20034;-76
2023/12/01 12:23:30;;;;;;;11.07;5.15;;;8.10;99.90;;;;;;4969965;28;20496;-78
2023/12/01 12:26:14;;;;;;;10.57;5.93;;;8.10;99.90;;;;;;4972064;28;20030;-76
2023/12/01 12:28:41;;;;;;;7.78;5.45;;;8.10;99.90;;;;;;4971577;28;20441;-77
2023/12/01 12:31:07;;;;;;;10.02;5.30;;;8.10;99.90;;;;;;4970175;28;20650;-77
2023/12/01 12:33:33;;;;;;;9.98;5.75;;;8.10;99.90;;;;;;4971856;28;20035;-75
2023/12/01 12:36:01;;;;;;;8.70;5.00;;;8.20;99.90;;;;;;4971513;28;20030;-77
2023/12/01 12:38:26;;;;;;;8.25;5.20;;;8.10;99.90;;;;;;4971093;28;20500;-76
2023/12/01 12:40:52;;;;;;;10.88;5.65;;;8.10;99.90;;;;;;4971400;28;20038;-77
2023/12/01 12:43:20;;;;;;;8.40;5.50;;;8.10;99.90;;;;;;4973309;28;20015;-77
2023/12/01 12:45:52;;;;;;;7.53;4.53;;;8.10;99.90;;;;;;4971242;28;20456;-76
2023/12/01 12:48:17;;;;;;;13.48;5.80;;;8.10;99.90;;;;;;4971242;28;20026;-77
2023/12/01 12:50:46;;;;;;;12.23;6.10;;;8.10;99.90;;;;;;4970201;28;20054;-77
2023/12/01 12:53:11;;;;;;;13.00;6.15;;;8.10;99.90;;;;;;4969237;28;20058;-78
2023/12/01 12:55:37;;;;;;;10.00;5.65;;;8.10;99.90;;;;;;4971628;28;20511;-77